Time;durP1;ratioP1;P1;durP2;ratioP2;P2;SDS_P1;SDS_P2;PMS_P1;PMS_P2;Temp;Humidity;BMP_temperature;BMP_pressure;BME280_temperature;BME280_humidity;BME280_pressure;Samples;Min_cycle;Max_cycle;Signal;HPM_P1;HPM_P2
2022/12/26 00:00:01;;;;;;;89.00;39.90;;;;;;;3.62;83.06;98643.31;1693164;83;25634;-68
2022/12/26 00:02:27;;;;;;;101.82;44.48;;;;;;;3.46;83.58;98634.89;1667228;83;25809;-68
2022/12/26 00:04:53;;;;;;;153.65;55.38;;;;;;;3.36;83.69;98625.65;1643550;85;25518;-68
2022/12/26 00:07:20;;;;;;;176.45;57.10;;;;;;;3.32;83.77;98617.79;1621528;85;25469;-68
2022/12/26 00:09:46;;;;;;;173.25;62.98;;;;;;;3.37;84.01;98619.70;1601451;85;27287;-69
2022/12/26 00:12:13;;;;;;;131.03;49.40;;;;;;;3.44;83.90;98620.25;1644355;85;25488;-68
2022/12/26 00:14:39;;;;;;;173.05;65.08;;;;;;;3.50;83.57;98615.65;1667049;83;25546;-69
2022/12/26 00:17:05;;;;;;;132.78;50.33;;;;;;;3.54;83.37;98614.59;1668200;83;25514;-69
2022/12/26 00:19:31;;;;;;;128.68;52.30;;;;;;;3.58;83.47;98613.78;1693057;83;25705;-68
2022/12/26 00:22:00;;;;;;;127.97;51.25;;;;;;;3.66;83.28;98615.16;1692691;83;27258;-68
2022/12/26 00:24:26;;;;;;;129.95;52.38;;;;;;;3.62;83.02;98623.00;1675855;84;25744;-68
2022/12/26 00:26:52;;;;;;;122.62;50.63;;;;;;;3.67;83.40;98615.41;1652965;84;25516;-69
2022/12/26 00:29:18;;;;;;;147.60;55.05;;;;;;;3.70;83.24;98605.39;1653900;84;25656;-68
2022/12/26 00:31:45;;;;;;;141.75;53.15;;;;;;;3.69;82.92;98600.23;1646176;85;25648;-68
2022/12/26 00:34:11;;;;;;;136.62;52.93;;;;;;;3.69;83.16;98598.35;1622686;85;27199;-68
2022/12/26 00:36:37;;;;;;;129.00;50.10;;;;;;;3.65;83.06;98597.24;1644394;85;25591;-69
2022/12/26 00:39:04;;;;;;;135.57;53.33;;;;;;;3.58;82.81;98596.17;1600887;85;25517;-69
2022/12/26 00:41:31;;;;;;;156.80;54.90;;;;;;;3.48;82.95;98601.55;1631628;84;26350;-69
2022/12/26 00:43:58;;;;;;;125.75;49.50;;;;;;;3.38;83.30;98601.00;1677524;84;25802;-67
2022/12/26 00:46:25;;;;;;;138.95;50.52;;;;;;;3.33;83.80;98605.86;1678894;84;27358;-68
2022/12/26 00:48:52;;;;;;;141.07;49.63;;;;;;;3.41;84.16;98604.53;1706890;84;25480;-67
2022/12/26 00:51:19;;;;;;;134.82;48.63;;;;;;;3.50;83.94;98602.92;1677740;83;25569;-68
2022/12/26 00:53:45;;;;;;;150.82;49.20;;;;;;;3.48;83.60;98598.84;1685646;83;26054;-68
2022/12/26 00:56:12;;;;;;;99.28;41.65;;;;;;;3.47;83.90;98595.33;1661323;83;25475;-67
2022/12/26 00:58:40;;;;;;;111.92;45.15;;;;;;;3.55;84.29;98591.28;1651136;83;27848;-68
2022/12/26 01:01:18;;;;;;;113.03;43.05;;;;;;;3.63;83.92;98587.23;1663152;83;25703;-69
2022/12/26 01:03:47;;;;;;;91.65;37.10;;;;;;;3.60;83.71;98580.44;1685612;83;25776;-67
2022/12/26 01:06:14;;;;;;;92.30;39.48;;;;;;;3.64;84.04;98580.72;1652328;83;26221;-68
2022/12/26 01:08:41;;;;;;;90.92;40.17;;;;;;;3.70;84.18;98575.58;1714084;83;25787;-68
2022/12/26 01:11:11;;;;;;;112.10;44.45;;;;;;;3.75;84.34;98578.84;1662382;83;28113;-69
2022/12/26 01:13:38;;;;;;;139.43;58.33;;;;;;;3.81;84.12;98576.40;1652274;83;25538;-68
2022/12/26 01:16:06;;;;;;;109.15;45.98;;;;;;;3.82;84.18;98582.61;1643914;83;25569;-68
2022/12/26 01:18:33;;;;;;;92.35;38.08;;;;;;;3.80;84.05;98591.02;1652005;83;25522;-69
2022/12/26 01:21:03;;;;;;;83.85;36.73;;;;;;;3.81;84.09;98595.91;1667647;83;25759;-68
2022/12/26 01:23:29;;;;;;;122.43;42.07;;;;;;;3.77;83.99;98582.07;1670325;83;27374;-68
2022/12/26 01:25:55;;;;;;;79.90;35.38;;;;;;;3.73;83.95;98574.22;1669262;83;25754;-68
2022/12/26 01:28:22;;;;;;;77.82;34.98;;;;;;;3.70;84.05;98578.29;1645878;83;25670;-68
2022/12/26 01:30:48;;;;;;;81.47;35.30;;;;;;;3.71;84.30;98579.11;1651067;84;25642;-68
2022/12/26 01:33:14;;;;;;;80.30;36.88;;;;;;;3.79;84.54;98581.27;1625022;84;25841;-68
2022/12/26 01:35:50;;;;;;;87.40;38.17;;;;;;;3.91;84.55;98582.34;1671734;84;27402;-68
2022/12/26 01:38:21;;;;;;;81.35;38.17;;;;;;;3.98;84.32;98584.80;1695077;84;25773;-68
2022/12/26 01:44:03;;;;;;;96.92;40.85;;;;;;;4.13;84.38;98590.75;1653644;86;25562;-68
2022/12/26 01:46:41;;;;;;;84.72;40.43;;;;;;;4.20;84.22;98577.72;1632566;87;25496;-68
2022/12/26 01:49:19;;;;;;;89.60;39.78;;;;;;;4.26;83.86;98577.98;1654803;86;27451;-68
2022/12/26 01:51:53;;;;;;;101.22;40.73;;;;;;;4.25;83.95;98583.14;1658392;85;26005;-68
2022/12/26 01:54:21;;;;;;;109.12;45.08;;;;;;;4.20;83.76;98582.34;1678616;85;25466;-68
2022/12/26 01:56:48;;;;;;;92.42;40.55;;;;;;;4.13;83.85;98582.61;1660076;85;25679;-68
2022/12/26 01:59:24;;;;;;;79.05;37.13;;;;;;;4.00;83.96;98582.64;1653640;85;25551;-68
2022/12/26 02:01:52;;;;;;;100.80;42.13;;;;;;;3.87;84.17;98579.38;1660983;85;27280;-69
2022/12/26 02:07:09;;;;;;;76.75;36.53;;;;;;;3.93;84.62;98586.14;1678265;85;25766;-68
2022/12/26 02:09:36;;;;;;;78.80;35.88;;;;;;;3.99;84.36;98575.04;1659064;85;26335;-68
2022/12/26 02:12:14;;;;;;;80.50;31.60;;;;;;;4.06;84.72;98569.31;1654289;85;25496;-69
2022/12/26 02:14:40;;;;;;;55.28;26.57;;;;;;;4.21;85.98;98553.59;1673329;85;27660;-68
2022/12/26 02:17:07;;;;;;;43.05;20.08;;;;;;;4.45;87.20;98548.92;1652866;85;25979;-69
2022/12/26 02:19:50;;;;;;;38.75;20.62;;;;;;;4.68;88.36;98534.45;1632142;85;25762;-68
2022/12/26 02:22:59;;;;;;;55.60;25.50;;;;;;;4.93;88.42;98537.33;1674024;85;26076;-68
2022/12/26 02:25:53;;;;;;;40.75;18.37;;;;;;;5.18;87.96;98531.50;1654419;85;25501;-68
2022/12/26 02:28:40;;;;;;;25.57;11.53;;;;;;;5.38;87.90;98512.34;1654131;85;27359;-69
2022/12/26 02:31:18;;;;;;;30.85;13.03;;;;;;;5.55;87.92;98495.38;1673224;85;25866;-68
2022/12/26 02:34:23;;;;;;;40.60;18.42;;;;;;;5.64;87.42;98498.55;1618025;88;25750;-69
2022/12/26 02:37:25;;;;;;;45.80;21.02;;;;;;;5.70;86.92;98500.66;1617977;88;25775;-69
2022/12/26 02:40:20;;;;;;;44.98;21.68;;;;;;;5.73;86.56;98493.30;1598326;88;25832;-69
2022/12/26 02:43:12;;;;;;;36.60;19.12;;;;;;;5.73;86.12;98485.71;1581028;89;27122;-69
2022/12/26 02:48:52;;;;;;;41.37;19.77;;;;;;;5.67;86.04;98487.64;1612342;87;25571;-68
2022/12/26 03:18:24;;;;;;;43.15;20.45;;;;;;;5.45;85.70;98490.83;1612355;87;25760;-69
2022/12/26 03:20:50;;;;;;;43.80;19.67;;;;;;;5.40;85.60;98480.27;1591396;87;25734;-68
2022/12/26 03:23:20;;;;;;;46.05;20.80;;;;;;;5.35;85.84;98483.01;1590399;87;25911;-69
2022/12/26 03:28:36;;;;;;;26.17;13.43;;;;;;;5.27;86.11;98497.22;1668480;84;25937;-69
2022/12/26 03:31:08;;;;;;;24.67;12.43;;;;;;;5.33;87.50;98492.55;1670607;84;25552;-68
2022/12/26 03:36:56;;;;;;;26.25;12.60;;;;;;;5.46;87.73;98502.77;1673549;85;25517;-68
2022/12/26 04:19:27;;;;;;;19.57;9.43;;;;;;;6.24;87.45;98474.88;1676337;85;25699;-68
2022/12/26 04:45:02;;;;;;;14.15;6.70;;;;;;;6.36;88.23;98472.31;1638049;86;25694;-70
2022/12/26 04:47:30;;;;;;;22.45;10.03;;;;;;;6.34;89.10;98484.85;1633077;86;25702;-69
2022/12/26 04:50:12;;;;;;;15.53;7.97;;;;;;;6.38;88.75;98491.87;1651026;85;25748;-69
2022/12/26 04:52:57;;;;;;;15.83;7.28;;;;;;;6.41;88.92;98483.13;1676307;85;27465;-69
2022/12/26 04:55:22;;;;;;;17.82;9.58;;;;;;;6.45;88.70;98477.34;1659567;85;25764;-68
2022/12/26 04:57:48;;;;;;;11.78;6.70;;;;;;;6.49;88.33;98482.50;1662523;84;25206;-68
2022/12/26 05:00:16;;;;;;;21.27;10.50;;;;;;;6.53;88.90;98475.90;1642579;84;25492;-68
2022/12/26 05:11:10;;;;;;;22.90;9.88;;;;;;;6.80;88.34;98464.13;1673504;85;25489;-68
2022/12/26 05:13:36;;;;;;;18.92;9.10;;;;;;;6.84;88.11;98472.78;1635512;85;25751;-68
2022/12/26 05:29:46;;;;;;;9.90;6.20;;;;;;;6.68;87.84;98487.72;1663547;85;25480;-68
2022/12/26 05:32:12;;;;;;;14.38;7.80;;;;;;;6.67;88.27;98489.62;1638652;85;27585;-68
2022/12/26 05:34:38;;;;;;;18.73;9.55;;;;;;;6.68;88.02;98482.27;1632911;86;26436;-68
2022/12/26 05:37:04;;;;;;;18.92;9.48;;;;;;;6.68;87.89;98481.70;1633125;86;25829;-68
2022/12/26 05:39:30;;;;;;;15.32;8.83;;;;;;;6.67;87.64;98487.47;1655813;85;25799;-68
2022/12/26 05:41:57;;;;;;;18.10;9.23;;;;;;;6.67;88.02;98486.89;1633526;86;25725;-69
2022/12/26 05:44:23;;;;;;;12.98;8.13;;;;;;;6.65;87.81;98489.12;1633453;85;27539;-69
2022/12/26 05:46:49;;;;;;;18.25;10.28;;;;;;;6.63;87.92;98495.39;1614441;87;25474;-68
2022/12/26 05:49:15;;;;;;;19.52;9.68;;;;;;;6.59;88.21;98501.96;1595445;87;25583;-69
2022/12/26 05:51:41;;;;;;;16.57;9.10;;;;;;;6.57;88.16;98506.91;1595265;87;25679;-68
2022/12/26 05:54:08;;;;;;;17.70;9.05;;;;;;;6.55;88.26;98506.92;1641394;85;25765;-68
2022/12/26 05:56:34;;;;;;;16.80;8.75;;;;;;;6.56;88.64;98504.48;1638612;85;27470;-69
2022/12/26 05:59:01;;;;;;;15.58;8.10;;;;;;;6.58;88.84;98491.36;1615623;85;25799;-68
2022/12/26 06:01:28;;;;;;;15.48;8.03;;;;;;;6.62;88.64;98497.88;1638667;85;25771;-69
2022/12/26 06:03:57;;;;;;;21.50;11.05;;;;;;;6.65;88.49;98504.89;1675783;85;25527;-69
2022/12/26 06:06:26;;;;;;;15.85;9.38;;;;;;;6.68;88.27;98499.97;1666980;85;25487;-70
2022/12/26 06:08:54;;;;;;;17.45;9.58;;;;;;;6.72;88.43;98493.65;1622638;85;28160;-69
2022/12/26 06:11:21;;;;;;;18.50;8.93;;;;;;;6.73;88.35;98502.06;1644881;85;25695;-69
2022/12/26 06:13:47;;;;;;;16.73;9.25;;;;;;;6.74;88.39;98508.34;1621676;85;25676;-69
2022/12/26 06:16:17;;;;;;;16.73;9.23;;;;;;;6.75;88.30;98499.05;1644577;85;26296;-68
2022/12/26 06:18:44;;;;;;;16.60;9.23;;;;;;;6.74;88.23;98498.80;1666854;85;25627;-69
2022/12/26 06:21:14;;;;;;;15.08;8.30;;;;;;;6.75;88.01;98495.79;1621622;85;27548;-69
2022/12/26 06:23:41;;;;;;;13.98;7.17;;;;;;;6.74;88.15;98502.31;1614984;85;25799;-69
2022/12/26 06:26:09;;;;;;;17.27;8.60;;;;;;;6.75;88.33;98501.78;1604415;87;25745;-69
2022/12/26 06:28:36;;;;;;;15.88;9.48;;;;;;;6.73;88.20;98506.16;1645084;87;25503;-70
2022/12/26 06:31:05;;;;;;;16.70;7.87;;;;;;;6.72;88.30;98504.55;1616882;87;25504;-68
2022/12/26 06:33:31;;;;;;;18.98;9.43;;;;;;;6.71;88.48;98504.27;1640409;85;27349;-69
2022/12/26 06:36:12;;;;;;;15.95;7.50;;;;;;;6.70;88.40;98486.31;1652970;85;25691;-68
2022/12/26 06:38:38;;;;;;;18.80;9.58;;;;;;;6.73;88.62;98487.09;1672306;85;25665;-69
2022/12/26 06:41:07;;;;;;;21.82;10.88;;;;;;;6.76;88.48;98500.13;1634384;85;25465;-69
2022/12/26 06:43:34;;;;;;;17.20;9.23;;;;;;;6.82;88.37;98495.41;1678326;83;25471;-69
2022/12/26 06:46:03;;;;;;;16.82;10.65;;;;;;;6.86;88.27;98499.73;1659852;84;27453;-69
2022/12/26 06:48:29;;;;;;;19.15;10.58;;;;;;;6.89;88.13;98514.95;1700433;83;25764;-69
2022/12/26 06:50:55;;;;;;;16.90;9.80;;;;;;;6.93;87.97;98509.71;1677553;83;25770;-69
2022/12/26 06:53:23;;;;;;;15.98;9.40;;;;;;;6.96;88.00;98515.11;1687001;83;27328;-69
2022/12/26 06:55:50;;;;;;;13.90;8.63;;;;;;;7.00;87.85;98512.09;1662988;83;25697;-69
2022/12/26 06:58:17;;;;;;;16.07;9.48;;;;;;;7.05;87.74;98507.91;1686784;83;27523;-69
2022/12/26 07:00:43;;;;;;;13.32;7.55;;;;;;;7.08;87.68;98501.08;1682352;85;25888;-69
2022/12/26 07:03:10;;;;;;;21.33;10.13;;;;;;;7.09;87.59;98498.06;1674374;84;25712;-69
2022/12/26 07:05:37;;;;;;;21.12;11.63;;;;;;;7.10;87.57;98496.12;1673514;84;25694;-69
2022/12/26 07:08:05;;;;;;;20.35;10.15;;;;;;;7.12;87.55;98494.75;1657262;82;25655;-68
2022/12/26 07:10:35;;;;;;;19.23;11.00;;;;;;;7.12;87.61;98499.37;1680612;83;27548;-68
2022/12/26 07:13:02;;;;;;;23.42;11.95;;;;;;;7.14;87.57;98502.63;1705178;82;25794;-69
2022/12/26 07:15:28;;;;;;;23.15;13.00;;;;;;;7.14;87.47;98502.06;1670600;83;25707;-69
2022/12/26 07:17:55;;;;;;;22.30;12.00;;;;;;;7.17;87.42;98495.23;1685078;84;25551;-69
2022/12/26 07:20:21;;;;;;;26.25;12.90;;;;;;;7.22;87.28;98498.41;1672593;83;25807;-69
2022/12/26 07:22:48;;;;;;;26.73;13.38;;;;;;;7.24;87.25;98502.47;1656082;82;27505;-69
2022/12/26 07:25:14;;;;;;;26.57;13.62;;;;;;;7.30;87.11;98512.74;1676346;84;25737;-69
2022/12/26 07:27:40;;;;;;;22.42;11.03;;;;;;;7.36;86.98;98524.38;1601616;85;25564;-69
2022/12/26 07:30:09;;;;;;;30.32;13.80;;;;;;;7.42;86.88;98517.73;1675274;84;25520;-68
2022/12/26 07:32:35;;;;;;;24.23;12.25;;;;;;;7.50;86.72;98529.34;1686765;82;25724;-68
2022/12/26 07:35:01;;;;;;;27.73;12.78;;;;;;;7.59;86.46;98531.39;1705154;83;27426;-69
2022/12/26 07:37:27;;;;;;;16.60;9.53;;;;;;;7.65;86.29;98532.93;1680181;84;27209;-68
2022/12/26 07:39:55;;;;;;;23.50;12.13;;;;;;;7.70;86.18;98537.49;1654168;84;25681;-68
2022/12/26 07:42:21;;;;;;;27.00;13.13;;;;;;;7.70;86.14;98533.40;1729519;82;25737;-68
2022/12/26 07:44:47;;;;;;;24.50;12.28;;;;;;;7.74;86.08;98530.33;1698329;83;25482;-67
2022/12/26 07:47:13;;;;;;;19.82;10.85;;;;;;;7.74;85.93;98531.69;1673697;83;29200;-67
2022/12/26 07:49:40;;;;;;;22.55;11.70;;;;;;;7.76;85.82;98533.03;1669040;83;27148;-67
2022/12/26 07:52:06;;;;;;;18.07;9.93;;;;;;;7.82;85.64;98532.93;1627248;85;25723;-68
2022/12/26 07:54:33;;;;;;;20.27;10.30;;;;;;;7.86;85.35;98533.97;1639106;83;27243;-68
2022/12/26 07:56:59;;;;;;;23.27;11.48;;;;;;;7.86;85.22;98529.31;1681934;83;25702;-67
2022/12/26 07:59:25;;;;;;;26.45;12.35;;;;;;;7.91;85.13;98533.87;1662145;83;27723;-68
2022/12/26 08:01:52;;;;;;;25.92;12.23;;;;;;;7.94;84.86;98544.19;1686441;83;25629;-68
2022/12/26 08:04:18;;;;;;;21.87;11.45;;;;;;;7.98;84.66;98540.32;1710091;83;25524;-67
2022/12/26 08:06:46;;;;;;;21.12;11.63;;;;;;;7.97;84.71;98543.59;1657408;85;25773;-68
2022/12/26 08:09:14;;;;;;;26.37;11.70;;;;;;;7.92;84.68;98536.88;1686536;83;25655;-68
2022/12/26 08:11:41;;;;;;;26.27;12.98;;;;;;;7.88;84.72;98538.56;1635601;85;28290;-67
2022/12/26 08:14:11;;;;;;;21.57;11.00;;;;;;;7.86;84.85;98527.16;1686447;83;25691;-68
2022/12/26 08:16:38;;;;;;;17.75;8.45;;;;;;;7.87;84.79;98528.77;1710094;83;25700;-68
2022/12/26 08:19:05;;;;;;;20.25;11.60;;;;;;;7.88;84.66;98527.64;1662096;83;25489;-68
2022/12/26 08:21:31;;;;;;;27.30;13.10;;;;;;;7.94;84.79;98537.37;1649660;86;25713;-69
2022/12/26 08:23:58;;;;;;;27.90;13.45;;;;;;;7.96;84.96;98543.34;1630633;85;27469;-68
2022/12/26 08:26:24;;;;;;;39.48;16.23;;;;;;;7.96;85.00;98546.08;1658729;85;25449;-70
2022/12/26 08:28:51;;;;;;;21.95;11.40;;;;;;;7.95;85.17;98539.55;1681944;84;25728;-70
2022/12/26 08:31:19;;;;;;;27.58;11.53;;;;;;;7.91;85.43;98537.97;1630817;85;26867;-70
2022/12/26 08:33:46;;;;;;;32.45;14.03;;;;;;;7.88;85.55;98539.92;1630644;85;25743;-70
2022/12/26 08:36:16;;;;;;;36.93;14.40;;;;;;;7.85;85.73;98532.34;1636466;83;29063;-67
2022/12/26 08:38:42;;;;;;;27.73;12.23;;;;;;;7.84;85.73;98542.45;1683853;83;26449;-69
2022/12/26 08:41:09;;;;;;;25.23;12.35;;;;;;;7.84;85.75;98556.64;1662405;83;25519;-70
2022/12/26 08:43:35;;;;;;;22.22;10.40;;;;;;;7.83;85.66;98556.40;1681697;84;25544;-70
2022/12/26 08:46:09;;;;;;;22.50;10.28;;;;;;;7.84;85.61;98557.46;1698958;83;25707;-70
2022/12/26 08:48:38;;;;;;;27.10;11.28;;;;;;;7.84;85.47;98552.55;1687307;83;28297;-70
2022/12/26 08:51:08;;;;;;;16.67;9.23;;;;;;;7.82;85.71;98543.84;1668592;83;25722;-69
2022/12/26 08:53:35;;;;;;;20.97;11.35;;;;;;;7.81;85.97;98549.05;1668437;83;25666;-69
2022/12/26 08:56:05;;;;;;;24.07;11.88;;;;;;;7.76;86.23;98559.49;1639509;85;25528;-68
2022/12/26 08:58:34;;;;;;;27.50;12.95;;;;;;;7.71;86.43;98559.59;1636646;85;25751;-70
2022/12/26 09:01:32;;;;;;;25.00;12.15;;;;;;;7.66;86.61;98555.03;1660103;85;27424;-70
2022/12/26 09:03:59;;;;;;;25.90;12.88;;;;;;;7.64;86.89;98555.86;1665569;83;25462;-70
2022/12/26 09:06:26;;;;;;;31.77;15.25;;;;;;;7.62;86.98;98553.44;1667199;83;25712;-69
2022/12/26 09:08:53;;;;;;;24.43;11.70;;;;;;;7.63;86.96;98543.34;1686588;84;25491;-70
2022/12/26 09:11:26;;;;;;;27.52;12.47;;;;;;;7.63;87.08;98534.59;1611659;86;25718;-71
2022/12/26 09:13:55;;;;;;;28.85;13.38;;;;;;;7.65;87.05;98556.94;1632772;86;27385;-71
2022/12/26 09:16:26;;;;;;;22.93;11.78;;;;;;;7.69;87.01;98548.16;1619800;86;25963;-71
2022/12/26 09:18:57;;;;;;;137.10;42.62;;;;;;;7.72;86.93;98547.56;1633061;86;25775;-71
2022/12/26 09:21:25;;;;;;;521.20;180.67;;;;;;;7.72;87.01;98540.20;1621002;86;25652;-72
2022/12/26 09:24:02;;;;;;;586.23;177.75;;;;;;;7.73;87.14;98539.08;1651138;83;25476;-71
2022/12/26 09:26:30;;;;;;;206.80;48.73;;;;;;;7.72;87.20;98528.47;1715528;83;28303;-72
2022/12/26 09:28:57;;;;;;;87.15;22.32;;;;;;;7.71;87.42;98526.86;1692524;83;25815;-71
2022/12/26 09:31:27;;;;;;;159.85;38.17;;;;;;;7.70;87.59;98524.67;1669808;83;25484;-68
2022/12/26 09:33:54;;;;;;;348.48;71.25;;;;;;;7.75;87.40;98529.23;1684192;84;25620;-75
2022/12/26 09:36:25;;;;;;;93.07;23.38;;;;;;;7.77;87.36;98543.38;1658652;85;25496;-72
2022/12/26 09:38:54;;;;;;;158.65;34.40;;;;;;;7.78;87.45;98545.80;1714729;83;27783;-74
2022/12/26 09:42:03;;;;;;;112.10;29.18;;;;;;;7.78;87.58;98551.26;1639416;83;25520;-73
2022/12/26 09:45:10;;;;;;;117.25;27.40;;;;;;;7.81;87.36;98548.51;1693743;83;25456;-71
2022/12/26 09:48:02;;;;;;;73.35;18.42;;;;;;;7.83;87.23;98545.48;1654379;85;25807;-70
2022/12/26 09:50:33;;;;;;;50.10;14.98;;;;;;;7.81;87.26;98549.88;1652166;85;25740;-72
2022/12/26 09:53:06;;;;;;;81.28;22.65;;;;;;;7.82;87.43;98546.57;1649054;87;28612;-71
2022/12/26 09:56:06;;;;;;;44.42;14.20;;;;;;;7.83;87.63;98541.39;1616785;87;25485;-72
2022/12/26 09:58:49;;;;;;;55.58;17.42;;;;;;;7.81;87.75;98526.69;1642805;84;25702;-69
2022/12/26 10:01:22;;;;;;;73.67;20.52;;;;;;;7.83;88.03;98529.91;1670097;85;25739;-70
2022/12/26 10:03:57;;;;;;;29.48;13.08;;;;;;;7.84;88.15;98522.00;1632735;85;25756;-70
2022/12/26 10:06:29;;;;;;;33.48;13.83;;;;;;;7.84;88.29;98517.91;1650744;84;28558;-69
2022/12/26 10:09:31;;;;;;;34.50;12.47;;;;;;;7.86;88.22;98513.52;1671024;85;25759;-70
2022/12/26 10:12:03;;;;;;;40.73;13.78;;;;;;;7.85;88.26;98507.78;1654268;85;25857;-68
2022/12/26 10:14:54;;;;;;;28.77;10.15;;;;;;;7.85;88.36;98523.61;1677671;85;25724;-69
2022/12/26 10:17:37;;;;;;;79.80;24.30;;;;;;;7.85;88.40;98522.78;1628777;86;25703;-70
2022/12/26 10:20:33;;;;;;;51.02;17.40;;;;;;;7.88;88.19;98523.55;1629390;86;27293;-67
2022/12/26 10:23:29;;;;;;;104.32;28.73;;;;;;;7.86;88.35;98521.13;1609673;87;25811;-68
2022/12/26 10:26:07;;;;;;;48.10;15.98;;;;;;;7.85;88.42;98515.42;1638936;87;25774;-70
2022/12/26 10:28:44;;;;;;;30.27;12.07;;;;;;;7.83;88.75;98506.72;1624673;87;25588;-67
2022/12/26 10:31:22;;;;;;;37.08;14.23;;;;;;;7.84;89.01;98508.90;1612896;89;25816;-69
2022/12/26 10:33:59;;;;;;;69.37;22.17;;;;;;;7.86;88.99;98505.33;1614867;87;27439;-68
2022/12/26 10:36:34;;;;;;;43.28;15.28;;;;;;;7.89;89.04;98511.55;1638598;87;25553;-67
2022/12/26 10:39:04;;;;;;;79.77;22.87;;;;;;;7.92;88.88;98506.86;1639221;86;25565;-67
2022/12/26 10:41:50;;;;;;;47.20;19.20;;;;;;;7.95;88.63;98502.71;1601438;87;25589;-69
2022/12/26 10:44:18;;;;;;;34.27;14.45;;;;;;;7.98;88.43;98502.11;1638566;87;25729;-68
2022/12/26 10:47:10;;;;;;;48.23;16.95;;;;;;;8.01;88.23;98495.48;1616883;87;27452;-68
2022/12/26 10:49:37;;;;;;;34.08;13.22;;;;;;;8.05;88.08;98490.24;1616292;87;25740;-67
2022/12/26 10:52:04;;;;;;;38.02;15.40;;;;;;;8.09;87.90;98500.80;1583709;89;25725;-69
2022/12/26 10:54:30;;;;;;;41.60;15.15;;;;;;;8.11;87.70;98496.41;1571011;89;25751;-65
2022/12/26 10:56:58;;;;;;;39.65;14.93;;;;;;;8.12;87.44;98499.41;1603756;87;25912;-62
2022/12/26 10:59:48;;;;;;;44.65;17.20;;;;;;;8.14;87.17;98514.37;1614648;82;27485;-68
2022/12/26 11:02:28;;;;;;;72.47;22.30;;;;;;;8.17;87.25;98521.14;1730289;83;25729;-70
2022/12/26 11:05:13;;;;;;;40.23;15.23;;;;;;;8.21;87.16;98526.27;1705572;82;25626;-70
2022/12/26 11:07:55;;;;;;;41.00;14.83;;;;;;;8.25;87.06;98530.01;1656059;82;25706;-70
2022/12/26 11:10:25;;;;;;;35.17;12.90;;;;;;;8.30;86.67;98518.19;1730125;83;25436;-71
2022/12/26 11:12:55;;;;;;;59.85;18.32;;;;;;;8.36;86.27;98507.42;1705374;82;27448;-70
2022/12/26 11:15:43;;;;;;;56.35;17.65;;;;;;;8.41;86.01;98503.78;1691196;83;25695;-70
2022/12/26 11:18:21;;;;;;;46.33;15.65;;;;;;;8.46;85.91;98505.61;1675159;84;25771;-68
2022/12/26 11:20:48;;;;;;;46.92;16.65;;;;;;;8.46;85.90;98491.37;1678313;84;25701;-71
2022/12/26 11:23:34;;;;;;;32.20;12.20;;;;;;;8.46;85.92;98500.14;1654896;84;25707;-71
2022/12/26 11:26:00;;;;;;;35.20;14.00;;;;;;;8.47;85.69;98491.65;1690328;83;25934;-70
2022/12/26 11:28:31;;;;;;;47.43;16.12;;;;;;;8.48;85.41;98486.98;1670398;83;25804;-71
2022/12/26 11:31:00;;;;;;;32.20;12.53;;;;;;;8.53;85.36;98480.06;1693142;83;25668;-70
2022/12/26 11:33:35;;;;;;;27.50;12.25;;;;;;;8.56;85.04;98475.93;1696021;83;25601;-68
2022/12/26 11:36:18;;;;;;;34.25;13.80;;;;;;;8.62;84.97;98480.17;1677774;85;25704;-70
2022/12/26 11:39:02;;;;;;;41.63;15.20;;;;;;;8.67;84.81;98474.62;1677334;85;27468;-69
2022/12/26 11:41:38;;;;;;;29.45;11.68;;;;;;;8.69;84.73;98464.75;1677316;85;25628;-69
2022/12/26 11:44:12;;;;;;;42.93;13.62;;;;;;;8.71;84.40;98467.97;1672182;85;25751;-68
2022/12/26 11:46:52;;;;;;;39.23;15.23;;;;;;;8.70;84.36;98475.38;1700871;83;25605;-71
2022/12/26 11:49:48;;;;;;;34.08;17.07;;;;;;;8.74;84.19;98467.36;1709230;84;25740;-72
2022/12/26 11:52:36;;;;;;;61.63;33.15;;;;;;;8.75;83.89;98464.31;1692937;84;27658;-71
2022/12/26 11:55:36;;;;;;;107.55;42.80;;;;;;;8.82;83.84;98472.11;1706359;83;25772;-69
2022/12/26 11:58:20;;;;;;;87.35;56.90;;;;;;;8.88;83.74;98474.16;1685270;83;25558;-70
2022/12/26 12:00:57;;;;;;;141.73;94.95;;;;;;;8.94;83.62;98474.30;1691880;83;27465;-71
2022/12/26 12:03:35;;;;;;;95.03;52.95;;;;;;;9.01;83.14;98464.33;1686860;85;25600;-71
2022/12/26 12:06:19;;;;;;;290.38;203.22;;;;;;;9.09;83.13;98457.30;1699737;84;26750;-70
2022/12/26 12:09:14;;;;;;;330.55;238.87;;;;;;;9.09;82.94;98447.73;1634881;86;25711;-70
2022/12/26 12:11:58;;;;;;;64.25;40.88;;;;;;;9.11;83.04;98459.17;1699440;84;25659;-70
2022/12/26 12:14:36;;;;;;;131.93;84.07;;;;;;;9.12;82.39;98464.88;1701623;84;25506;-71
2022/12/26 12:17:19;;;;;;;120.60;72.75;;;;;;;9.13;82.25;98471.41;1695165;84;25695;-70
2022/12/26 12:20:15;;;;;;;66.15;34.45;;;;;;;9.16;82.33;98463.95;1685961;84;28043;-71
2022/12/26 12:23:07;;;;;;;221.05;146.02;;;;;;;9.18;81.80;98458.17;1694143;84;25914;-70
2022/12/26 12:26:05;;;;;;;52.45;26.33;;;;;;;9.21;82.25;98460.30;1694504;84;25456;-70
2022/12/26 12:28:55;;;;;;;60.80;31.50;;;;;;;9.20;82.25;98460.05;1661905;84;26307;-69
2022/12/26 12:31:57;;;;;;;71.60;40.12;;;;;;;9.21;82.43;98459.50;1691707;84;25618;-68
2022/12/26 12:34:49;;;;;;;49.30;25.52;;;;;;;9.19;82.29;98448.06;1672743;84;27266;-67
2022/12/26 12:37:36;;;;;;;47.73;26.23;;;;;;;9.18;82.20;98455.44;1669280;84;25533;-67
2022/12/26 12:40:32;;;;;;;124.62;72.85;;;;;;;9.20;82.17;98460.05;1706640;83;25597;-67
2022/12/26 12:43:07;;;;;;;55.40;26.65;;;;;;;9.25;82.05;98465.41;1676241;84;25576;-67
2022/12/26 12:45:47;;;;;;;48.00;25.62;;;;;;;9.31;82.00;98464.73;1673184;85;25694;-67
2022/12/26 12:48:34;;;;;;;66.42;37.42;;;;;;;9.35;81.93;98462.98;1673061;85;27446;-67
2022/12/26 12:51:24;;;;;;;57.62;30.35;;;;;;;9.43;82.03;98466.90;1634423;85;25804;-67
2022/12/26 12:54:23;;;;;;;59.80;24.92;;;;;;;9.45;82.23;98464.67;1600168;88;25731;-67
2022/12/26 12:56:58;;;;;;;42.13;26.60;;;;;;;9.50;82.26;98459.64;1596599;88;25817;-67
2022/12/26 12:59:48;;;;;;;47.10;26.17;;;;;;;9.50;82.12;98473.31;1618124;88;25745;-67
2022/12/26 13:02:41;;;;;;;29.07;16.23;;;;;;;9.48;82.20;98483.20;1589869;90;27489;-67
2022/12/26 13:05:42;;;;;;;28.38;17.23;;;;;;;9.47;82.28;98496.61;1590248;90;25552;-67
2022/12/26 13:08:14;;;;;;;;;;;;;;;9.48;82.45;98484.56;1586988;89;25513;-67
2022/12/26 13:10:58;;;;;;;76.20;46.50;;;;;;;9.52;82.55;98477.89;1585660;89;25590;-67
2022/12/26 14:28:25;;;;;;;125.35;47.62;;;;;;;8.87;83.16;98460.26;1882388;75;25523;-68
2022/12/26 14:31:17;;;;;;;177.70;58.83;;;;;;;8.80;83.16;98455.20;1859016;77;25631;-68
2022/12/26 14:34:33;;;;;;;132.45;49.23;;;;;;;8.90;82.72;98454.18;1859359;77;27325;-67
2022/12/26 14:37:04;;;;;;;243.70;94.47;;;;;;;8.98;82.22;98457.53;1827654;77;25676;-68
2022/12/26 14:39:39;;;;;;;203.25;70.35;;;;;;;9.07;82.06;98454.87;1859036;77;25647;-67
2022/12/26 14:44:58;;;;;;;101.72;35.78;;;;;;;9.21;81.49;98458.92;1858803;77;25435;-68
2022/12/26 14:47:47;;;;;;;387.52;167.00;;;;;;;9.25;81.07;98453.66;1828551;77;28194;-68
2022/12/26 14:50:54;;;;;;;192.13;71.72;;;;;;;9.30;80.92;98454.92;1828485;77;25672;-67
2022/12/26 14:53:31;;;;;;;122.58;47.20;;;;;;;9.33;80.85;98449.38;1858715;77;25411;-68
2022/12/26 14:56:21;;;;;;;70.00;31.23;;;;;;;9.34;80.72;98452.34;1856004;77;25700;-68
2022/12/26 14:58:50;;;;;;;511.35;269.73;;;;;;;9.34;80.63;98456.45;1827851;77;25707;-68
2022/12/26 15:01:24;;;;;;;169.77;78.15;;;;;;;9.34;80.59;98444.14;1801053;77;28412;-68
2022/12/26 15:04:33;;;;;;;36.63;20.02;;;;;;;9.35;80.53;98452.04;1855705;77;25588;-68
2022/12/26 15:07:33;;;;;;;26.30;15.00;;;;;;;9.38;80.21;98451.42;1826960;77;25668;-68
2022/12/26 15:10:23;;;;;;;30.20;15.93;;;;;;;9.40;79.89;98450.56;1858958;77;25629;-68
2022/12/26 15:13:15;;;;;;;57.10;30.88;;;;;;;9.42;79.75;98457.09;1858751;77;25458;-68
2022/12/26 15:16:28;;;;;;;39.65;27.60;;;;;;;9.43;80.01;98460.61;1856304;77;27827;-68
2022/12/26 15:19:29;;;;;;;25.05;13.93;;;;;;;9.37;79.84;98445.71;1827667;77;26022;-68
2022/12/26 15:22:24;;;;;;;27.67;19.27;;;;;;;9.37;80.32;98449.81;1856293;77;25618;-67